Chicago, Illinois
Traffic Map
Current Weather Conditions
Chicago, Illinois
Clear
Clear
11°
Feels Like: 11°
Wind Chill: 11° Ceiling: Unl
Heat Index: 11° Visibility: 10mi
Dew Point: -1° Wind: 7mph
Humidity: 43% Direction: 300° (WNW)
Pressure: 29.99in Gusts: 0mph
Raw Report DataKMDW 260653Z 30006KT 10SM CLR 11/M01 A2999 RMK AO2 SLP151 T01111011
Traffic Incident Summary
Active as of:
Severity:
Category:
InformationThere was an issue retrieving the traffic information for this location. Please try a different location or try again shortly.
Advertisements
Track Severe Weather on mobile